createdAt,value
2017-09-14T00:01:07.316Z,1.70
2017-09-14T00:03:34.052Z,1.80
2017-09-14T00:06:00.795Z,1.93
2017-09-14T00:08:27.511Z,2.00
2017-09-14T00:10:54.257Z,2.13
2017-09-14T00:13:21.017Z,1.70
2017-09-14T00:15:47.720Z,2.50
2017-09-14T00:18:14.423Z,2.40
2017-09-14T00:20:41.193Z,2.37
2017-09-14T00:23:07.931Z,2.70
2017-09-14T00:25:34.636Z,2.10
2017-09-14T00:28:01.389Z,2.40
2017-09-14T00:30:28.085Z,2.20
2017-09-14T00:32:54.790Z,2.13
2017-09-14T00:35:21.557Z,2.40
2017-09-14T00:37:48.259Z,2.13
2017-09-14T00:40:14.956Z,2.13
2017-09-14T00:42:41.698Z,2.63
2017-09-14T00:45:08.421Z,2.30
2017-09-14T00:47:35.127Z,2.30
2017-09-14T00:50:01.912Z,1.97
2017-09-14T00:52:28.624Z,1.90
2017-09-14T00:54:55.346Z,2.00
2017-09-14T00:57:22.112Z,1.43
2017-09-14T00:59:48.853Z,1.70
2017-09-14T01:02:15.550Z,2.00
2017-09-14T01:04:42.297Z,2.37
2017-09-14T01:07:09.002Z,1.97
2017-09-14T01:09:35.715Z,1.77
2017-09-14T01:12:02.483Z,2.00
2017-09-14T01:14:29.230Z,1.90
2017-09-14T01:16:55.943Z,1.90
2017-09-14T01:19:22.751Z,1.83
2017-09-14T01:21:49.518Z,2.00
2017-09-14T01:24:16.287Z,1.60
2017-09-14T01:26:43.072Z,1.70
2017-09-14T01:29:09.879Z,1.50
2017-09-14T01:31:36.619Z,1.27
2017-09-14T01:34:03.389Z,1.83
2017-09-14T01:36:30.112Z,1.77
2017-09-14T01:38:56.855Z,1.60
2017-09-14T01:41:23.669Z,1.53
2017-09-14T01:43:50.378Z,1.60
2017-09-14T01:46:17.102Z,1.40
2017-09-14T01:48:43.871Z,2.40
2017-09-14T01:51:10.610Z,1.83
2017-09-14T01:53:37.336Z,1.53
2017-09-14T01:56:04.124Z,1.73
2017-09-14T01:58:30.833Z,1.43
2017-09-14T02:00:57.591Z,1.70
2017-09-14T02:03:24.342Z,1.57
2017-09-14T02:05:51.066Z,1.90
2017-09-14T02:08:17.792Z,1.77
2017-09-14T02:10:44.550Z,1.37
2017-09-14T02:13:11.276Z,1.40
2017-09-14T02:15:37.984Z,1.40
2017-09-14T02:18:04.764Z,1.30
2017-09-14T02:20:31.479Z,1.60
2017-09-14T02:22:58.196Z,1.50
2017-09-14T02:25:24.959Z,1.30
2017-09-14T02:27:51.660Z,1.47
2017-09-14T02:30:18.365Z,1.60
2017-09-14T02:32:45.128Z,1.70
2017-09-14T02:35:11.876Z,1.70
2017-09-14T02:37:38.609Z,1.40
2017-09-14T02:40:05.366Z,2.10
2017-09-14T02:42:32.094Z,1.50
2017-09-14T02:44:58.804Z,1.70
2017-09-14T02:47:25.575Z,1.73
2017-09-14T02:49:52.274Z,1.47
2017-09-14T02:52:19.006Z,1.60
2017-09-14T02:54:45.761Z,1.40
2017-09-14T02:57:12.571Z,1.67
2017-09-14T02:59:39.296Z,1.57
2017-09-14T03:02:06.052Z,1.80
2017-09-14T03:04:32.768Z,1.50
2017-09-14T03:06:59.772Z,1.50
2017-09-14T03:09:26.538Z,1.60
2017-09-14T03:11:53.250Z,2.00
2017-09-14T03:14:19.939Z,2.20
2017-09-14T03:16:46.670Z,1.70
2017-09-14T03:19:13.391Z,1.90
2017-09-14T03:21:40.159Z,1.43
2017-09-14T03:24:06.915Z,1.80
2017-09-14T03:26:33.617Z,2.07
2017-09-14T03:29:00.330Z,1.60
2017-09-14T03:31:27.085Z,1.97
2017-09-14T03:33:53.788Z,1.90
2017-09-14T03:36:20.485Z,1.83
2017-09-14T03:38:47.240Z,1.80
2017-09-14T03:41:13.940Z,2.17
2017-09-14T03:43:40.635Z,1.57
2017-09-14T03:46:07.434Z,1.80
2017-09-14T03:48:34.140Z,1.80
2017-09-14T03:51:00.840Z,1.60
2017-09-14T03:53:27.608Z,1.83
2017-09-14T03:55:54.337Z,1.97
2017-09-14T03:58:21.051Z,1.80
2017-09-14T04:00:47.827Z,1.60
2017-09-14T04:03:14.570Z,2.00
2017-09-14T04:05:41.286Z,1.83
2017-09-14T04:08:08.036Z,1.80
2017-09-14T04:10:34.783Z,1.80
2017-09-14T04:13:01.500Z,2.03
2017-09-14T04:15:28.252Z,1.63
2017-09-14T04:17:54.955Z,2.07
2017-09-14T04:20:21.704Z,1.80
2017-09-14T04:22:48.461Z,2.20
2017-09-14T04:25:15.165Z,1.90
2017-09-14T04:27:41.865Z,1.93
2017-09-14T04:30:08.639Z,2.03
2017-09-14T04:32:35.344Z,1.87
2017-09-14T04:35:02.093Z,2.30
2017-09-14T04:37:28.854Z,1.93
2017-09-14T04:39:55.588Z,2.40
2017-09-14T04:42:22.292Z,2.30
2017-09-14T04:44:49.037Z,2.37
2017-09-14T04:47:15.763Z,2.20
2017-09-14T04:49:42.473Z,2.10
2017-09-14T04:52:09.278Z,2.20
2017-09-14T04:54:36.054Z,2.50
2017-09-14T04:57:02.827Z,2.73
2017-09-14T04:59:29.636Z,2.37
2017-09-14T05:01:56.340Z,3.10
2017-09-14T05:04:23.032Z,2.50
2017-09-14T05:06:49.791Z,3.03
2017-09-14T05:09:16.517Z,3.43
2017-09-14T05:11:43.229Z,3.53
2017-09-14T05:14:10.006Z,4.23
2017-09-14T05:16:36.718Z,3.50
2017-09-14T05:19:03.427Z,3.57
2017-09-14T05:21:30.166Z,3.97
2017-09-14T05:23:56.910Z,4.07
2017-09-14T05:26:23.635Z,3.83
2017-09-14T05:28:50.399Z,3.73
2017-09-14T05:31:17.126Z,3.43
2017-09-14T05:33:43.839Z,4.23
2017-09-14T05:36:10.579Z,4.27
2017-09-14T05:38:37.313Z,4.83
2017-09-14T05:41:04.044Z,4.10
2017-09-14T05:43:30.803Z,4.60
2017-09-14T05:45:57.500Z,4.17
2017-09-14T05:48:24.249Z,3.70
2017-09-14T05:50:50.996Z,3.73
2017-09-14T05:53:17.794Z,3.07
2017-09-14T05:55:44.500Z,3.30
2017-09-14T05:58:11.268Z,3.57
2017-09-14T06:00:37.987Z,3.40
2017-09-14T06:03:04.694Z,3.43
2017-09-14T06:05:31.449Z,3.67
2017-09-14T06:07:58.163Z,2.90
2017-09-14T06:10:24.859Z,3.13
2017-09-14T06:12:51.630Z,3.30
2017-09-14T06:15:18.344Z,4.30
2017-09-14T06:17:45.047Z,2.80
2017-09-14T06:20:11.885Z,3.50
2017-09-14T06:22:38.611Z,3.60
2017-09-14T06:25:05.334Z,3.43
2017-09-14T06:27:32.090Z,3.97
2017-09-14T06:29:58.886Z,3.80
2017-09-14T06:32:25.600Z,4.10
2017-09-14T06:34:52.376Z,4.33
2017-09-14T06:37:19.064Z,3.27
2017-09-14T06:39:45.796Z,3.40
2017-09-14T06:42:12.554Z,3.17
2017-09-14T06:44:39.306Z,4.03
2017-09-14T06:47:06.004Z,3.17
2017-09-14T06:49:32.752Z,3.30
2017-09-14T06:51:59.447Z,4.17
2017-09-14T06:54:26.134Z,3.13
2017-09-14T06:56:52.875Z,3.73
2017-09-14T06:59:19.569Z,2.70
2017-09-14T07:01:46.294Z,4.00
2017-09-14T07:04:13.045Z,3.73
2017-09-14T07:06:39.735Z,4.07
2017-09-14T07:09:06.434Z,3.83
2017-09-14T07:11:33.186Z,4.13
2017-09-14T07:13:59.894Z,4.07
2017-09-14T07:16:26.594Z,4.70
2017-09-14T07:18:53.340Z,4.20
2017-09-14T07:21:20.031Z,4.60
2017-09-14T07:23:46.741Z,4.70
2017-09-14T07:26:13.477Z,4.00
2017-09-14T07:28:40.165Z,3.47
2017-09-14T07:31:06.863Z,3.50
2017-09-14T07:33:33.604Z,3.87
2017-09-14T07:36:00.304Z,3.80
2017-09-14T07:38:27.004Z,3.90
2017-09-14T07:40:53.779Z,4.30
2017-09-14T07:43:20.491Z,3.83
2017-09-14T07:48:37.535Z,3.57
2017-09-14T07:51:04.278Z,3.80
2017-09-14T07:53:30.976Z,3.20
2017-09-14T07:55:57.695Z,3.43
2017-09-14T07:58:24.468Z,4.70
2017-09-14T08:00:53.462Z,3.27
2017-09-14T08:03:20.317Z,3.70
2017-09-14T08:05:47.144Z,3.20
2017-09-14T08:08:13.906Z,3.40
2017-09-14T08:10:40.625Z,2.83
2017-09-14T08:13:07.366Z,2.80
2017-09-14T08:15:34.067Z,2.93
2017-09-14T08:18:00.857Z,2.53
2017-09-14T08:20:27.639Z,2.60
2017-09-14T08:22:54.385Z,3.00
2017-09-14T08:25:21.099Z,2.67
2017-09-14T08:27:47.844Z,2.73
2017-09-14T08:30:14.600Z,2.50
2017-09-14T08:32:41.318Z,2.80
2017-09-14T08:35:08.171Z,2.50
2017-09-14T08:37:34.886Z,2.27
2017-09-14T08:40:01.594Z,2.00
2017-09-14T08:42:28.411Z,2.30
2017-09-14T08:44:55.119Z,2.10
2017-09-14T08:47:21.820Z,2.90
2017-09-14T08:49:48.656Z,2.43
2017-09-14T08:52:15.411Z,2.00
2017-09-14T08:54:42.155Z,1.93
2017-09-14T08:57:08.906Z,2.80
2017-09-14T08:59:35.638Z,1.60
2017-09-14T09:02:02.418Z,2.10
2017-09-14T09:04:29.259Z,2.27
2017-09-14T09:06:56.185Z,1.80
2017-09-14T09:09:23.016Z,2.10
2017-09-14T09:11:49.777Z,1.90
2017-09-14T09:14:16.466Z,1.70
2017-09-14T09:16:43.195Z,1.87
2017-09-14T09:19:09.948Z,2.03
2017-09-14T09:21:36.651Z,2.00
2017-09-14T09:24:03.364Z,1.80
2017-09-14T09:26:30.117Z,1.63
2017-09-14T09:28:56.816Z,1.70
2017-09-14T09:31:23.564Z,1.77
2017-09-14T09:33:50.343Z,2.20
2017-09-14T09:36:17.049Z,1.87
2017-09-14T09:38:43.778Z,1.93
2017-09-14T09:41:10.543Z,2.10
2017-09-14T09:43:37.348Z,2.13
2017-09-14T09:46:04.123Z,1.83
2017-09-14T09:48:30.880Z,2.00
2017-09-14T09:50:57.610Z,2.00
2017-09-14T09:53:24.315Z,2.37
2017-09-14T09:55:51.087Z,2.33
2017-09-14T09:58:17.778Z,2.23
2017-09-14T10:00:44.471Z,2.10
2017-09-14T10:03:11.214Z,1.60
2017-09-14T10:05:37.937Z,2.33
2017-09-14T10:08:04.652Z,1.37
2017-09-14T10:10:31.405Z,1.77
2017-09-14T10:12:58.201Z,2.10
2017-09-14T10:15:24.931Z,1.70
2017-09-14T10:17:51.755Z,1.63
2017-09-14T10:20:18.483Z,1.40
2017-09-14T10:22:45.219Z,1.87
2017-09-14T10:25:11.960Z,1.53
2017-09-14T10:27:38.698Z,1.90
2017-09-14T10:30:05.417Z,2.03
2017-09-14T10:32:32.259Z,1.77
2017-09-14T10:34:58.980Z,1.97
2017-09-14T10:37:25.723Z,2.23
2017-09-14T10:39:52.570Z,1.50
2017-09-14T10:42:19.283Z,1.77
2017-09-14T10:44:45.999Z,1.97
2017-09-14T10:47:12.748Z,1.77
2017-09-14T10:49:39.440Z,1.70
2017-09-14T10:52:06.135Z,1.93
2017-09-14T10:54:32.895Z,1.57
2017-09-14T10:56:59.608Z,1.60
2017-09-14T10:59:26.327Z,1.60
2017-09-14T11:01:53.109Z,1.80
2017-09-14T11:04:19.810Z,2.10
2017-09-14T11:06:46.522Z,1.40
2017-09-14T11:09:14.185Z,1.90
2017-09-14T11:11:40.881Z,2.30
2017-09-14T11:14:07.596Z,1.80
2017-09-14T11:16:34.363Z,2.23
2017-09-14T11:19:01.129Z,2.07
2017-09-14T11:21:27.845Z,1.67
2017-09-14T11:23:54.665Z,1.90
2017-09-14T11:26:21.385Z,2.20
2017-09-14T11:28:48.088Z,2.47
2017-09-14T11:31:14.863Z,2.00
2017-09-14T11:33:41.566Z,2.10
2017-09-14T11:36:08.264Z,2.20
2017-09-14T11:38:35.110Z,2.33
2017-09-14T11:41:01.821Z,2.40
2017-09-14T11:43:28.592Z,2.23
2017-09-14T11:45:55.407Z,2.60
2017-09-14T11:48:22.131Z,2.47
2017-09-14T11:50:48.872Z,2.20
2017-09-14T11:53:15.620Z,2.00
2017-09-14T11:55:42.404Z,2.40
2017-09-14T11:58:09.111Z,1.80
2017-09-14T12:00:35.868Z,2.10
2017-09-14T12:03:02.579Z,2.40
2017-09-14T12:05:29.296Z,2.17
2017-09-14T12:07:56.043Z,2.50
2017-09-14T12:10:22.765Z,2.03
2017-09-14T12:12:49.473Z,2.50
2017-09-14T12:15:16.225Z,2.73
2017-09-14T12:17:42.919Z,1.97
2017-09-14T12:20:09.625Z,2.27
2017-09-14T12:22:36.360Z,2.20
2017-09-14T12:25:03.153Z,2.40
2017-09-14T12:27:29.850Z,2.20
2017-09-14T12:29:56.595Z,2.10
2017-09-14T12:32:23.307Z,1.77
2017-09-14T12:34:50.123Z,2.93
2017-09-14T12:37:16.890Z,2.10
2017-09-14T12:39:43.607Z,2.10
2017-09-14T12:42:10.383Z,2.43
2017-09-14T12:44:37.203Z,2.10
2017-09-14T12:47:03.912Z,2.67
2017-09-14T12:49:30.711Z,2.40
2017-09-14T12:51:57.488Z,2.57
2017-09-14T12:54:24.216Z,2.27
2017-09-14T12:56:51.305Z,2.40
2017-09-14T12:59:18.093Z,2.13
2017-09-14T13:02:04.594Z,2.37
2017-09-14T13:04:32.376Z,2.73
2017-09-14T13:07:01.324Z,2.47
2017-09-14T13:09:28.530Z,2.10
2017-09-14T13:11:55.289Z,2.13
2017-09-14T13:14:22.023Z,2.30
2017-09-14T13:16:48.766Z,2.40
2017-09-14T13:19:15.496Z,1.53
2017-09-14T13:21:42.990Z,1.93
2017-09-14T13:24:09.731Z,1.93
2017-09-14T13:26:36.470Z,2.27
2017-09-14T13:29:03.185Z,1.80
2017-09-14T13:31:29.902Z,2.30
2017-09-14T13:33:56.815Z,2.33
2017-09-14T13:36:23.519Z,1.87
2017-09-14T13:38:50.303Z,2.10
2017-09-14T13:41:17.165Z,1.87
2017-09-14T13:43:43.965Z,1.70
2017-09-14T13:46:10.679Z,1.83
2017-09-14T13:48:37.776Z,1.93
2017-09-14T13:51:04.475Z,1.53
2017-09-14T13:53:31.264Z,2.03
2017-09-14T13:55:58.038Z,2.30
2017-09-14T13:58:24.840Z,1.50
2017-09-14T14:00:51.575Z,1.60
2017-09-14T14:03:18.407Z,1.50
2017-09-14T14:05:45.128Z,2.03
2017-09-14T14:08:11.835Z,1.60
2017-09-14T14:10:38.590Z,1.20
2017-09-14T14:13:05.311Z,1.80
2017-09-14T14:15:32.145Z,2.00
2017-09-14T14:17:58.982Z,1.60
2017-09-14T14:20:25.702Z,1.90
2017-09-14T14:22:52.422Z,1.60
2017-09-14T14:25:19.793Z,2.03
2017-09-14T14:27:46.597Z,1.60
2017-09-14T14:30:13.375Z,1.97
2017-09-14T14:32:40.130Z,1.60
2017-09-14T14:35:07.104Z,1.80
2017-09-14T14:37:34.335Z,1.80
2017-09-14T14:40:01.375Z,1.60
2017-09-14T14:42:28.399Z,1.77
2017-09-14T14:44:55.777Z,2.17
2017-09-14T14:47:22.568Z,1.67
2017-09-14T14:49:49.300Z,1.70
2017-09-14T14:52:16.003Z,2.17
2017-09-14T14:54:42.740Z,1.60
2017-09-14T14:57:09.454Z,1.80
2017-09-14T14:59:36.188Z,1.47
2017-09-14T15:02:03.040Z,4.03
2017-09-14T15:04:29.747Z,1.70
2017-09-14T15:06:56.465Z,1.53
2017-09-14T15:09:23.248Z,1.70
2017-09-14T15:11:49.977Z,1.83
2017-09-14T15:14:16.684Z,1.70
2017-09-14T15:16:43.439Z,1.93
2017-09-14T15:19:10.152Z,1.43
2017-09-14T15:21:36.899Z,1.67
2017-09-14T15:24:03.680Z,1.30
2017-09-14T15:26:30.482Z,1.70
2017-09-14T15:28:57.309Z,1.70
2017-09-14T15:31:24.115Z,1.53
2017-09-14T15:33:50.822Z,2.03
2017-09-14T15:36:17.546Z,1.60
2017-09-14T15:39:05.131Z,2.00
2017-09-14T15:41:37.529Z,1.57
2017-09-14T15:44:10.041Z,1.67
2017-09-14T15:46:36.776Z,1.60
2017-09-14T15:49:09.124Z,1.10
2017-09-14T15:51:41.715Z,1.17
2017-09-14T15:54:08.430Z,1.93
2017-09-14T15:56:35.129Z,1.80
2017-09-14T15:59:01.895Z,1.27
2017-09-14T16:01:28.596Z,1.67
2017-09-14T16:03:55.325Z,1.50
2017-09-14T16:06:22.088Z,1.40
2017-09-14T16:08:48.790Z,1.60
2017-09-14T16:11:15.605Z,1.23
2017-09-14T16:13:42.382Z,1.73
2017-09-14T16:16:09.217Z,1.57
2017-09-14T16:18:35.950Z,1.53
2017-09-14T16:21:02.789Z,1.53
2017-09-14T16:23:29.537Z,1.27
2017-09-14T16:25:56.377Z,1.17
2017-09-14T16:28:23.202Z,1.00
2017-09-14T16:30:50.063Z,0.83
2017-09-14T16:33:16.867Z,0.97
2017-09-14T16:35:43.676Z,1.27
2017-09-14T16:38:10.399Z,0.90
2017-09-14T16:40:37.153Z,0.97
2017-09-14T16:43:03.899Z,0.93
2017-09-14T16:45:30.607Z,0.93
2017-09-14T16:47:57.324Z,1.00
2017-09-14T16:50:24.078Z,0.87
2017-09-14T16:52:50.873Z,1.10
2017-09-14T16:55:17.585Z,0.90
2017-09-14T16:57:44.329Z,1.10
2017-09-14T17:00:11.046Z,0.70
2017-09-14T17:02:37.830Z,0.53
2017-09-14T17:05:04.647Z,0.80
2017-09-14T17:07:31.359Z,0.83
2017-09-14T17:09:58.406Z,0.60
2017-09-14T17:12:25.170Z,0.60
2017-09-14T17:14:51.982Z,0.70
2017-09-14T17:17:18.707Z,0.67
2017-09-14T17:19:45.444Z,0.67
2017-09-14T17:22:12.238Z,0.60
2017-09-14T17:24:39.022Z,0.70
2017-09-14T17:27:05.764Z,0.50
2017-09-14T17:29:32.498Z,0.47
2017-09-14T17:31:59.218Z,0.60
2017-09-14T17:34:26.088Z,0.47
2017-09-14T17:36:52.804Z,0.70
2017-09-14T17:39:19.544Z,0.50
2017-09-14T17:41:46.293Z,0.43
2017-09-14T17:44:13.008Z,0.40
2017-09-14T17:46:39.708Z,0.40
2017-09-14T17:49:06.451Z,0.40
2017-09-14T17:51:33.163Z,0.50
2017-09-14T17:53:59.870Z,0.40
2017-09-14T17:56:26.627Z,0.50
2017-09-14T17:58:53.359Z,0.50
2017-09-14T18:01:20.137Z,0.40
2017-09-14T18:03:46.891Z,0.40
2017-09-14T18:06:13.622Z,0.50
2017-09-14T18:08:40.341Z,0.40
2017-09-14T18:11:07.079Z,0.40
2017-09-14T18:13:33.907Z,0.50
2017-09-14T18:16:00.703Z,0.40
2017-09-14T18:18:27.522Z,0.50
2017-09-14T18:20:54.282Z,0.30
2017-09-14T18:23:21.021Z,0.43
2017-09-14T18:25:47.832Z,0.50
2017-09-14T18:28:18.201Z,1.83
2017-09-14T18:30:45.105Z,0.40
2017-09-14T18:33:11.841Z,0.33
2017-09-14T18:35:38.564Z,0.40
2017-09-14T18:38:05.295Z,0.40
2017-09-14T18:40:32.054Z,0.40
2017-09-14T18:42:58.763Z,0.40
2017-09-14T18:45:25.535Z,0.50
2017-09-14T18:47:52.247Z,0.50
2017-09-14T18:50:18.968Z,0.40
2017-09-14T18:52:45.708Z,0.40
2017-09-14T18:55:12.410Z,0.40
2017-09-14T18:57:39.113Z,0.43
2017-09-14T19:00:05.872Z,0.37
2017-09-14T19:02:32.597Z,0.40
2017-09-14T19:04:59.343Z,0.40
2017-09-14T19:07:26.117Z,0.40
2017-09-14T19:09:52.910Z,0.90
2017-09-14T19:12:19.623Z,1.20
2017-09-14T19:14:46.364Z,0.50
2017-09-14T19:17:13.083Z,0.70
2017-09-14T19:19:40.044Z,0.50
2017-09-14T19:22:06.822Z,0.50
2017-09-14T19:24:33.610Z,0.60
2017-09-14T19:27:00.423Z,0.90
2017-09-14T19:29:27.199Z,0.53
2017-09-14T19:31:53.907Z,0.67
2017-09-14T19:34:20.626Z,0.70
2017-09-14T19:36:47.370Z,0.40
2017-09-14T19:39:14.488Z,0.50
2017-09-14T19:41:41.229Z,0.53
2017-09-14T19:44:07.994Z,0.50
2017-09-14T19:46:34.720Z,0.60
2017-09-14T19:49:01.452Z,0.60
2017-09-14T19:51:28.197Z,0.50
2017-09-14T19:53:54.932Z,0.60
2017-09-14T19:56:21.645Z,0.50
2017-09-14T19:58:48.413Z,0.63
2017-09-14T20:01:15.129Z,0.40
2017-09-14T20:03:41.846Z,0.60
2017-09-14T20:06:08.579Z,0.60
2017-09-14T20:08:35.289Z,0.70
2017-09-14T20:11:01.978Z,0.50
2017-09-14T20:13:28.718Z,0.53
2017-09-14T20:15:55.515Z,0.50
2017-09-14T20:18:22.248Z,0.70
2017-09-14T20:20:48.976Z,0.40
2017-09-14T20:23:15.783Z,0.60
2017-09-14T20:25:42.485Z,0.60
2017-09-14T20:28:09.322Z,0.57
2017-09-14T20:30:36.039Z,0.50
2017-09-14T20:33:02.758Z,0.50
2017-09-14T20:35:29.487Z,0.90
2017-09-14T20:37:56.187Z,0.60
2017-09-14T20:40:22.906Z,0.53
2017-09-14T20:42:49.634Z,1.00
2017-09-14T20:45:16.373Z,0.60
2017-09-14T20:47:43.085Z,0.80
2017-09-14T20:50:09.807Z,0.80
2017-09-14T20:52:36.507Z,0.50
2017-09-14T20:55:03.239Z,0.83
2017-09-14T20:57:31.356Z,0.60
2017-09-14T20:59:58.064Z,0.90
2017-09-14T21:02:24.759Z,0.77
2017-09-14T21:04:51.482Z,1.00
2017-09-14T21:07:18.204Z,1.23
2017-09-14T21:09:45.323Z,0.70
2017-09-14T21:12:12.106Z,1.03
2017-09-14T21:14:38.811Z,0.60
2017-09-14T21:17:05.585Z,0.97
2017-09-14T21:19:32.311Z,0.60
2017-09-14T21:21:59.000Z,0.57
2017-09-14T21:24:25.701Z,0.63
2017-09-14T21:26:52.438Z,0.60
2017-09-14T21:29:19.142Z,0.60
2017-09-14T21:31:45.847Z,0.40
2017-09-14T21:34:12.599Z,0.77
2017-09-14T21:36:39.331Z,0.50
2017-09-14T21:39:06.055Z,0.50
2017-09-14T21:41:32.796Z,0.50
2017-09-14T21:43:59.520Z,0.50
2017-09-14T21:46:26.210Z,0.70
2017-09-14T21:48:52.934Z,0.57
2017-09-14T21:51:19.642Z,0.77
2017-09-14T21:53:46.359Z,0.50
2017-09-14T21:56:13.097Z,0.60
2017-09-14T21:58:39.790Z,0.30
2017-09-14T22:01:06.496Z,0.40
2017-09-14T22:03:33.231Z,0.40
2017-09-14T22:05:59.955Z,0.50
2017-09-14T22:08:26.657Z,0.43
2017-09-14T22:10:53.384Z,0.40
2017-09-14T22:13:20.101Z,0.50
2017-09-14T22:15:46.801Z,1.60
2017-09-14T22:18:13.513Z,0.50
2017-09-14T22:20:40.207Z,0.47
2017-09-14T22:23:06.903Z,0.53
2017-09-14T22:25:33.622Z,0.40
2017-09-14T22:28:00.315Z,0.60
2017-09-14T22:30:27.014Z,0.50
2017-09-14T22:32:53.744Z,0.60
2017-09-14T22:35:20.445Z,0.40
2017-09-14T22:37:47.159Z,0.40
2017-09-14T22:40:13.871Z,0.40
2017-09-14T22:42:40.553Z,0.40
2017-09-14T22:45:07.248Z,0.53
2017-09-14T22:47:33.978Z,0.50
2017-09-14T22:50:00.684Z,0.50
2017-09-14T22:52:27.403Z,0.30
2017-09-14T22:54:54.125Z,0.40
2017-09-14T22:57:20.850Z,0.40
2017-09-14T22:59:47.546Z,0.40
2017-09-14T23:02:14.302Z,0.40
2017-09-14T23:04:41.026Z,0.40
2017-09-14T23:07:07.718Z,0.40
2017-09-14T23:09:34.441Z,0.50
2017-09-14T23:12:01.138Z,0.90
2017-09-14T23:14:27.833Z,0.43
2017-09-14T23:16:54.549Z,0.40
2017-09-14T23:19:21.246Z,0.40
2017-09-14T23:21:47.966Z,0.40
2017-09-14T23:24:14.701Z,0.50
2017-09-14T23:26:41.394Z,0.83
2017-09-14T23:29:08.114Z,0.60
2017-09-14T23:31:34.846Z,0.60
2017-09-14T23:34:01.555Z,0.50
2017-09-14T23:36:28.258Z,0.53
2017-09-14T23:38:54.986Z,0.40
2017-09-14T23:41:21.712Z,0.30
2017-09-14T23:43:48.405Z,0.50
2017-09-14T23:46:15.114Z,0.50
2017-09-14T23:48:41.814Z,0.43
2017-09-14T23:51:08.510Z,0.50
2017-09-14T23:53:35.231Z,0.40
2017-09-14T23:56:01.932Z,0.40
2017-09-14T23:58:28.618Z,0.50
